Météo Nord-Pas-de-Calais   La météo au plus près de chez vous

Station météorologique

Observations météo à Avord (18092)

18092001 175 m Dernier relevé à 20:12
25°C
Humidité 35 % Vent 9 km/h 1020.8 hPa

Journée consultée

Mercredi 2 Septembre 2026

Synthèse de la journée

Périodes de référence en UTC

Température maximale

27.2°C

à 19:00

06h 06h

Température minimale

12.7°C

à 05:36

18h 18h

Rafale maximale

30 km/h

à 14:48

00h 00h

Précipitations

0 mm

Cumul quotidien

06h 06h

Graphiques de la journée

Heure locale Réduire

Données détaillées

Relevés météo

Pas de 6 minutes Afficher les relevés infra-horaires
Relevés météo détaillés à Avord pour le Mercredi 2 Septembre 2026
Heure Température °C Point de rosée °C Humidité % Vent moyen (raf.), km/h Précipitations mm Température à 10 cm °C Température à 20 cm °C Température à 50 cm °C Température à 100 cm °C Visibilité m Pression hPa Nébulosité Octas
20:12 25 °C 10.1 °C 39 % 7 km/h (10 km/h) 0 mm0 mm 22.9 °C 22.1 °C 21.4 °C 21.3 °C 60000 m 1021.2 hPa
20:06 25.3 °C 10 °C 38 % 6 km/h (10 km/h) 0 mm0 mm 22.9 °C 22.1 °C 21.4 °C 21.3 °C 60000 m 1021.1 hPa
20:00 25.3 °C 10.3 °C 39 % 6 km/h (9 km/h) 0 mm0 mm 22.8 °C 22.1 °C 21.4 °C 21.3 °C 60000 m 1021.1 hPa
19:54 25.6 °C 9.8 °C 37 % 7 km/h (12 km/h) 0 mm0 mm 22.9 °C 22.1 °C 21.4 °C 21.3 °C 60000 m 1021.1 hPa
19:48 25.7 °C 9.9 °C 37 % 9 km/h (14 km/h) 0 mm0 mm 22.9 °C 22 °C 21.4 °C 21.3 °C 60000 m 1021.1 hPa
19:42 25.9 °C 9.7 °C 36 % 12 km/h (16 km/h) 0 mm0 mm 22.8 °C 22 °C 21.4 °C 21.3 °C 59500 m 1021 hPa
19:36 26.2 °C 9.9 °C 36 % 12 km/h (16 km/h) 0 mm0 mm 22.8 °C 22 °C 21.4 °C 21.3 °C 55920 m 1021 hPa
19:30 26.4 °C 9.7 °C 35 % 12 km/h (17 km/h) 0 mm0 mm 22.8 °C 22 °C 21.4 °C 21.3 °C 56360 m 1021 hPa
19:24 26.6 °C 9.9 °C 35 % 11 km/h (18 km/h) 0 mm0 mm 22.8 °C 21.9 °C 21.4 °C 21.2 °C 60000 m 1020.9 hPa
19:18 26.8 °C 10.1 °C 35 % 8 km/h (15 km/h) 0 mm0 mm 22.8 °C 22 °C 21.4 °C 21.3 °C 60000 m 1020.9 hPa
19:12 26.7 °C 10 °C 35 % 9 km/h (13 km/h) 0 mm0 mm 22.8 °C 21.9 °C 21.4 °C 21.3 °C 57990 m 1020.8 hPa
19:06 26.6 °C 9.9 °C 35 % 12 km/h (17 km/h) 0 mm0 mm 22.8 °C 21.9 °C 21.4 °C 21.3 °C 56990 m 1020.8 hPa
19:00 26.8 °C 9.6 °C 34 % 11 km/h (17 km/h) 0 mm0 mm 22.7 °C 21.9 °C 21.4 °C 21.2 °C 52380 m 1020.8 hPa
18:54 26.6 °C 9.4 °C 34 % 11 km/h (16 km/h) 0 mm0 mm 22.7 °C 21.9 °C 21.4 °C 21.3 °C 51460 m 1020.8 hPa
18:48 26.6 °C 9.4 °C 34 % 13 km/h (20 km/h) 0 mm0 mm 22.7 °C 21.9 °C 21.4 °C 21.3 °C 58780 m 1020.8 hPa
18:42 26.7 °C 9.5 °C 34 % 15 km/h (20 km/h) 0 mm0 mm 22.7 °C 21.9 °C 21.4 °C 21.3 °C 55560 m 1020.8 hPa
18:36 26.9 °C 9.7 °C 34 % 13 km/h (22 km/h) 0 mm0 mm 22.7 °C 21.8 °C 21.4 °C 21.3 °C 56200 m 1020.8 hPa
18:30 27 °C 9.8 °C 34 % 11 km/h (20 km/h) 0 mm0 mm 22.6 °C 21.8 °C 21.3 °C 21.2 °C 54520 m 1020.8 hPa
18:24 27.1 °C 9.9 °C 34 % 9 km/h (18 km/h) 0 mm0 mm 22.6 °C 21.8 °C 21.4 °C 21.3 °C 55350 m 1020.9 hPa
18:18 26.9 °C 10.1 °C 35 % 8 km/h (18 km/h) 0 mm0 mm 22.6 °C 21.8 °C 21.4 °C 21.3 °C 56250 m 1020.9 hPa
18:12 27.1 °C 9.9 °C 34 % 12 km/h (20 km/h) 0 mm0 mm 22.6 °C 21.7 °C 21.4 °C 21.3 °C 56830 m 1020.9 hPa
18:06 27.1 °C 9.9 °C 34 % 9 km/h (20 km/h) 0 mm0 mm 22.5 °C 21.7 °C 21.4 °C 21.3 °C 60000 m 1020.9 hPa
18:00 26.8 °C 9.6 °C 34 % 9 km/h (15 km/h) 0 mm0 mm 22.5 °C 21.7 °C 21.4 °C 21.3 °C 60000 m 1021 hPa
17:54 27 °C 9.8 °C 34 % 11 km/h (15 km/h) 0 mm0 mm 22.5 °C 21.7 °C 21.4 °C 21.3 °C 60000 m 1021 hPa
17:48 26.7 °C 9.5 °C 34 % 13 km/h (24 km/h) 0 mm0 mm 22.5 °C 21.7 °C 21.4 °C 21.3 °C 60000 m 1021 hPa
17:42 27.1 °C 9.9 °C 34 % 12 km/h (25 km/h) 0 mm0 mm 22.5 °C 21.6 °C 21.4 °C 21.3 °C 50450 m 1021 hPa
17:36 26.9 °C 10.1 °C 35 % 13 km/h (20 km/h) 0 mm0 mm 22.4 °C 21.6 °C 21.4 °C 21.3 °C 50020 m 1021 hPa
17:30 26.9 °C 10.1 °C 35 % 8 km/h (20 km/h) 0 mm0 mm 22.4 °C 21.6 °C 21.4 °C 21.3 °C 58320 m 1021 hPa
17:24 26.6 °C 10.3 °C 36 % 4 km/h (7 km/h) 0 mm0 mm 22.4 °C 21.6 °C 21.4 °C 21.3 °C 60000 m 1021 hPa
17:18 26.6 °C 9.4 °C 34 % 9 km/h (18 km/h) 0 mm0 mm 22.4 °C 21.6 °C 21.4 °C 21.3 °C 58810 m 1021.2 hPa
17:12 26.9 °C 10.1 °C 35 % 11 km/h (20 km/h) 0 mm0 mm 22.3 °C 21.5 °C 21.4 °C 21.3 °C 59340 m 1021.1 hPa
17:06 26.4 °C 10.1 °C 36 % 10 km/h (17 km/h) 0 mm0 mm 22.3 °C 21.5 °C 21.4 °C 21.3 °C 60000 m 1021.3 hPa
17:00 25.8 °C 10 °C 37 % 7 km/h (17 km/h) 0 mm0 mm 22.3 °C 21.5 °C 21.4 °C 21.3 °C 58580 m 1021.3 hPa
16:54 26 °C 9.8 °C 36 % 7 km/h (15 km/h) 0 mm0 mm 22.2 °C 21.5 °C 21.4 °C 21.3 °C 58580 m 1021.3 hPa
16:48 26.1 °C 9.9 °C 36 % 11 km/h (18 km/h) 0 mm0 mm 22.2 °C 21.4 °C 21.4 °C 21.3 °C 58250 m 1021.3 hPa
16:42 26.4 °C 10.1 °C 36 % 10 km/h (18 km/h) 0 mm0 mm 22.2 °C 21.4 °C 21.4 °C 21.3 °C 57070 m 1021.4 hPa
16:36 26.2 °C 9.9 °C 36 % 9 km/h (15 km/h) 0 mm0 mm 22.1 °C 21.4 °C 21.4 °C 21.3 °C 58840 m 1021.4 hPa
16:30 26.3 °C 10.4 °C 37 % 4 km/h (14 km/h) 0 mm0 mm 22.1 °C 21.4 °C 21.4 °C 21.3 °C 57680 m 1021.3 hPa
16:24 25.9 °C 10.5 °C 38 % 4 km/h (8 km/h) 0 mm0 mm 22.1 °C 21.4 °C 21.4 °C 21.3 °C 57680 m 1021.4 hPa
16:18 25.7 °C 10.7 °C 39 % 7 km/h (13 km/h) 0 mm0 mm 22 °C 21.3 °C 21.4 °C 21.3 °C 60000 m 1021.4 hPa
16:12 25.6 °C 9.8 °C 37 % 9 km/h (20 km/h) 0 mm0 mm 22 °C 21.3 °C 21.4 °C 21.3 °C 60000 m 1021.5 hPa
16:06 25.7 °C 10.3 °C 38 % 11 km/h (21 km/h) 0 mm0 mm 22 °C 21.3 °C 21.4 °C 21.3 °C 60000 m 1021.5 hPa
16:00 25.8 °C 10.4 °C 38 % 14 km/h (24 km/h) 0 mm0 mm 21.9 °C 21.3 °C 21.4 °C 21.3 °C 52990 m 1021.5 hPa
15:54 26.3 °C 10 °C 36 % 15 km/h (24 km/h) 0 mm0 mm 21.9 °C 21.2 °C 21.4 °C 21.3 °C 55010 m 1021.5 hPa
15:48 26.6 °C 10.3 °C 36 % 14 km/h (21 km/h) 0 mm0 mm 21.8 °C 21.2 °C 21.4 °C 21.3 °C 60000 m 1021.5 hPa
15:42 26.7 °C 10.4 °C 36 % 14 km/h (24 km/h) 0 mm0 mm 21.8 °C 21.2 °C 21.4 °C 21.3 °C 60000 m 1021.4 hPa
15:36 26.1 °C 10.3 °C 37 % 10 km/h (21 km/h) 0 mm0 mm 21.7 °C 21.2 °C 21.4 °C 21.3 °C 58460 m 1021.6 hPa
15:30 26.1 °C 11.1 °C 39 % 10 km/h (20 km/h) 0 mm0 mm 21.7 °C 21.1 °C 21.4 °C 21.3 °C 56860 m 1021.6 hPa
15:24 26 °C 10.6 °C 38 % 15 km/h (23 km/h) 0 mm0 mm 21.6 °C 21.2 °C 21.5 °C 21.3 °C 58130 m 1021.6 hPa
15:18 26.3 °C 11.2 °C 39 % 11 km/h (22 km/h) 0 mm0 mm 21.6 °C 21.1 °C 21.5 °C 21.3 °C 48310 m 1021.6 hPa
15:12 26.2 °C 10.8 °C 38 % 11 km/h (21 km/h) 0 mm0 mm 21.5 °C 21.1 °C 21.4 °C 21.3 °C 41660 m 1021.6 hPa
15:06 25.9 °C 10.1 °C 37 % 14 km/h (24 km/h) 0 mm0 mm 21.5 °C 21 °C 21.4 °C 21.3 °C 35570 m 1021.6 hPa
15:00 26.1 °C 11.1 °C 39 % 14 km/h (24 km/h) 0 mm0 mm 21.5 °C 21 °C 21.4 °C 21.3 °C 25800 m 1021.6 hPa
14:54 26.1 °C 10.7 °C 38 % 15 km/h (30 km/h) 0 mm0 mm 21.4 °C 21 °C 21.4 °C 21.3 °C 60000 m 1021.7 hPa
14:48 26 °C 11 °C 39 % 10 km/h (30 km/h) 0 mm0 mm 21.4 °C 21 °C 21.4 °C 21.3 °C 60000 m 1021.7 hPa
14:42 25.5 °C 10.5 °C 39 % 10 km/h (26 km/h) 0 mm0 mm 21.3 °C 21 °C 21.5 °C 21.3 °C 60000 m 1021.7 hPa
14:36 25.7 °C 11.1 °C 40 % 13 km/h (26 km/h) 0 mm0 mm 21.3 °C 21 °C 21.4 °C 21.3 °C 60000 m 1021.8 hPa
14:30 25.5 °C 10.9 °C 40 % 14 km/h (23 km/h) 0 mm0 mm 21.3 °C 20.9 °C 21.5 °C 21.3 °C 60000 m 1021.8 hPa
14:24 25.2 °C 11.4 °C 42 % 10 km/h (23 km/h) 0 mm0 mm 21.2 °C 20.9 °C 21.4 °C 21.3 °C 60000 m 1021.9 hPa
14:18 25.2 °C 11.4 °C 42 % 10 km/h (21 km/h) 0 mm0 mm 21.2 °C 20.9 °C 21.4 °C 21.3 °C 49580 m 1021.9 hPa
14:12 25.5 °C 11.3 °C 41 % 11 km/h (21 km/h) 0 mm0 mm 21.1 °C 20.9 °C 21.5 °C 21.3 °C 49340 m 1021.9 hPa
14:06 25.8 °C 11.2 °C 40 % 13 km/h (23 km/h) 0 mm0 mm 21.1 °C 20.8 °C 21.4 °C 21.3 °C 57920 m 1021.8 hPa
14:00 25.6 °C 11.7 °C 42 % 13 km/h (25 km/h) 0 mm0 mm 21 °C 20.9 °C 21.5 °C 21.3 °C 53360 m 1021.9 hPa 6 Octas
13:54 25.4 °C 12.3 °C 44 % 12 km/h (21 km/h) 0 mm0 mm 21 °C 20.8 °C 21.5 °C 21.3 °C 51820 m 1021.9 hPa
13:48 25.1 °C 11.6 °C 43 % 12 km/h (23 km/h) 0 mm0 mm 20.9 °C 20.8 °C 21.5 °C 21.3 °C 52010 m 1022.1 hPa
13:42 25 °C 11.5 °C 43 % 13 km/h (23 km/h) 0 mm0 mm 20.9 °C 20.8 °C 21.5 °C 21.3 °C 52260 m 1022.1 hPa
13:36 25.7 °C 12.2 °C 43 % 11 km/h (23 km/h) 0 mm0 mm 20.8 °C 20.8 °C 21.5 °C 21.3 °C 52550 m 1021.9 hPa
13:30 25.3 °C 11.5 °C 42 % 10 km/h (18 km/h) 0 mm0 mm 20.8 °C 20.8 °C 21.5 °C 21.3 °C 52890 m 1022 hPa
13:24 25 °C 11.5 °C 43 % 12 km/h (18 km/h) 0 mm0 mm 20.8 °C 20.8 °C 21.5 °C 21.3 °C 55060 m 1022.2 hPa
13:18 25 °C 11.5 °C 43 % 10 km/h (18 km/h) 0 mm0 mm 20.7 °C 20.7 °C 21.4 °C 21.3 °C 59260 m 1022.3 hPa
13:12 24.3 °C 11.6 °C 45 % 8 km/h (14 km/h) 0 mm0 mm 20.7 °C 20.8 °C 21.5 °C 21.3 °C 56920 m 1022.4 hPa
13:06 24.4 °C 11 °C 43 % 11 km/h (19 km/h) 0 mm0 mm 20.6 °C 20.7 °C 21.5 °C 21.3 °C 52550 m 1022.3 hPa
13:00 24.5 °C 11.4 °C 44 % 10 km/h (19 km/h) 0 mm0 mm 20.6 °C 20.7 °C 21.5 °C 21.3 °C 52250 m 1022.3 hPa
12:54 24.6 °C 11.9 °C 45 % 9 km/h (14 km/h) 0 mm0 mm 20.5 °C 20.7 °C 21.5 °C 21.3 °C 53680 m 1022.4 hPa
12:48 24.3 °C 12.3 °C 47 % 7 km/h (14 km/h) 0 mm0 mm 20.5 °C 20.7 °C 21.5 °C 21.3 °C 56790 m 1022.4 hPa
12:42 24.4 °C 11.7 °C 45 % 4 km/h (11 km/h) 0 mm0 mm 20.5 °C 20.7 °C 21.5 °C 21.3 °C 58650 m 1022.4 hPa
12:36 24.7 °C 11.6 °C 44 % 5 km/h (12 km/h) 0 mm0 mm 20.4 °C 20.7 °C 21.5 °C 21.3 °C 60000 m 1022.5 hPa
12:30 23.9 °C 11.9 °C 47 % 6 km/h (12 km/h) 0 mm0 mm 20.4 °C 20.7 °C 21.5 °C 21.3 °C 58860 m 1022.5 hPa
12:24 24.5 °C 12.1 °C 46 % 7 km/h (13 km/h) 0 mm0 mm 20.3 °C 20.7 °C 21.5 °C 21.3 °C 58860 m 1022.5 hPa
12:18 24.4 °C 12 °C 46 % 6 km/h (13 km/h) 0 mm0 mm 20.2 °C 20.7 °C 21.5 °C 21.3 °C 40540 m 1022.5 hPa
12:12 24.3 °C 12.6 °C 48 % 5 km/h (11 km/h) 0 mm0 mm 20.2 °C 20.7 °C 21.5 °C 21.3 °C 41700 m 1022.5 hPa
12:06 23.9 °C 11.9 °C 47 % 6 km/h (11 km/h) 0 mm0 mm 20.2 °C 20.7 °C 21.5 °C 21.3 °C 60000 m 1022.5 hPa
12:00 23.5 °C 11.9 °C 48 % 5 km/h (11 km/h) 0 mm0 mm 20.1 °C 20.7 °C 21.5 °C 21.3 °C 60000 m 1022.5 hPa
11:54 23.6 °C 12.3 °C 49 % 4 km/h (9 km/h) 0 mm0 mm 20.1 °C 20.7 °C 21.5 °C 21.3 °C 60000 m 1022.6 hPa
11:48 23.4 °C 12.7 °C 51 % 4 km/h (9 km/h) 0 mm0 mm 20.1 °C 20.7 °C 21.5 °C 21.3 °C 60000 m 1022.5 hPa
11:42 23.1 °C 13 °C 53 % 5 km/h (10 km/h) 0 mm0 mm 20.1 °C 20.7 °C 21.5 °C 21.3 °C 60000 m 1022.4 hPa
11:36 22.5 °C 13.3 °C 56 % 5 km/h (10 km/h) 0 mm0 mm 20 °C 20.7 °C 21.5 °C 21.3 °C 46940 m 1022.5 hPa
11:30 22.3 °C 13.1 °C 56 % 4 km/h (8 km/h) 0 mm0 mm 20 °C 20.8 °C 21.5 °C 21.3 °C 37550 m 1022.5 hPa
11:24 22.2 °C 13.3 °C 57 % 5 km/h (10 km/h) 0 mm0 mm 20 °C 20.8 °C 21.5 °C 21.3 °C 46810 m 1022.7 hPa
11:18 22 °C 13.6 °C 59 % 5 km/h (10 km/h) 0 mm0 mm 19.9 °C 20.8 °C 21.5 °C 21.3 °C 53990 m 1022.6 hPa
11:12 21.5 °C 12.9 °C 58 % 3 km/h (8 km/h) 0 mm0 mm 19.9 °C 20.7 °C 21.5 °C 21.3 °C 59000 m 1022.6 hPa
11:06 21.1 °C 12.8 °C 59 % 3 km/h (8 km/h) 0 mm0 mm 19.9 °C 20.8 °C 21.5 °C 21.3 °C 59000 m 1022.5 hPa
11:00 21 °C 13.2 °C 61 % 4 km/h (7 km/h) 0 mm0 mm 19.9 °C 20.8 °C 21.5 °C 21.3 °C 58010 m 1022.5 hPa
10:54 20.3 °C 13 °C 63 % 4 km/h (6 km/h) 0 mm0 mm 19.9 °C 20.8 °C 21.5 °C 21.3 °C 53390 m 1022.5 hPa
10:48 20.3 °C 13 °C 63 % 3 km/h (5 km/h) 0 mm0 mm 19.9 °C 20.8 °C 21.5 °C 21.3 °C 58000 m 1022.6 hPa
10:42 20.2 °C 12.9 °C 63 % 3 km/h (6 km/h) 0 mm0 mm 19.8 °C 20.8 °C 21.5 °C 21.3 °C 60000 m 1022.5 hPa
10:36 20.3 °C 13.5 °C 65 % 4 km/h (6 km/h) 0 mm0 mm 19.8 °C 20.8 °C 21.5 °C 21.3 °C 54650 m 1022.4 hPa
10:30 19.5 °C 12.7 °C 65 % 3 km/h (5 km/h) 0 mm0 mm 19.8 °C 20.8 °C 21.5 °C 21.3 °C 57580 m 1022.3 hPa
10:24 18.9 °C 13.3 °C 70 % 3 km/h (7 km/h) 0 mm0 mm 19.8 °C 20.8 °C 21.5 °C 21.3 °C 55190 m 1022.4 hPa
10:18 18.4 °C 12.8 °C 70 % 4 km/h (9 km/h) 0 mm0 mm 19.8 °C 20.9 °C 21.5 °C 21.3 °C 51290 m 1022.3 hPa
10:12 17.9 °C 13.4 °C 75 % 3 km/h (9 km/h) 0 mm0 mm 19.8 °C 20.8 °C 21.5 °C 21.3 °C 49210 m 1022.3 hPa
10:06 17.5 °C 13.6 °C 78 % 2 km/h (6 km/h) 0 mm0 mm 19.8 °C 20.9 °C 21.5 °C 21.3 °C 53070 m 1022.4 hPa
10:00 17.1 °C 13.4 °C 79 % 2 km/h (4 km/h) 0 mm0 mm 19.8 °C 20.9 °C 21.5 °C 21.3 °C 57950 m 1022.4 hPa
09:54 16.5 °C 13.4 °C 82 % 2 km/h (3 km/h) 0 mm0 mm 19.8 °C 20.9 °C 21.5 °C 21.3 °C 52090 m 1022.4 hPa
09:48 16.4 °C 13.5 °C 83 % 0 km/h (3 km/h) 0 mm0 mm 19.8 °C 20.9 °C 21.5 °C 21.3 °C 53670 m 1022.4 hPa
09:42 16.4 °C 13.7 °C 84 % 0 km/h (4 km/h) 0 mm0 mm 19.8 °C 20.9 °C 21.5 °C 21.3 °C 60000 m 1022.2 hPa
09:36 16.3 °C 14 °C 86 % 0 km/h (3 km/h) 0 mm0 mm 19.8 °C 20.9 °C 21.5 °C 21.3 °C 60000 m 1022.2 hPa
09:30 15.7 °C 13.7 °C 88 % 0 km/h (3 km/h) 0 mm0 mm 19.8 °C 20.9 °C 21.5 °C 21.3 °C 60000 m 1022.2 hPa
09:24 15.5 °C 13.5 °C 88 % 2 km/h (4 km/h) 0 mm0 mm 19.8 °C 20.9 °C 21.5 °C 21.3 °C 60000 m 1022.1 hPa
09:18 15.5 °C 13.5 °C 88 % 2 km/h (4 km/h) 0 mm0 mm 19.8 °C 20.9 °C 21.5 °C 21.3 °C 60000 m 1022 hPa
09:12 15.3 °C 13.3 °C 88 % 2 km/h (3 km/h) 0 mm0 mm 19.8 °C 20.9 °C 21.5 °C 21.3 °C 59840 m 1022.2 hPa
09:06 15.1 °C 13 °C 87 % 2 km/h (3 km/h) 0 mm0 mm 19.8 °C 21 °C 21.5 °C 21.3 °C 59930 m 1022.1 hPa
09:00 14.9 °C 12.9 °C 88 % 2 km/h (3 km/h) 0 mm0 mm 19.9 °C 21 °C 21.5 °C 21.3 °C 59510 m 1022.2 hPa
08:54 14.8 °C 12.8 °C 88 % 3 km/h (4 km/h) 0 mm0 mm 19.8 °C 21 °C 21.5 °C 21.3 °C 60000 m 1022.2 hPa
08:48 14.6 °C 13.1 °C 91 % 2 km/h (3 km/h) 0 mm0 mm 19.9 °C 21 °C 21.5 °C 21.3 °C 60000 m 1022.2 hPa
08:42 14.4 °C 13.1 °C 92 % 2 km/h (3 km/h) 0 mm0 mm 19.9 °C 21 °C 21.5 °C 21.3 °C 60000 m 1022.2 hPa
08:36 14.2 °C 12.9 °C 92 % 2 km/h (3 km/h) 0 mm0 mm 19.9 °C 21 °C 21.5 °C 21.3 °C 56600 m 1022.1 hPa
08:30 14.1 °C 12.8 °C 92 % 2 km/h (3 km/h) 0 mm0 mm 19.9 °C 21 °C 21.5 °C 21.3 °C 60000 m 1022 hPa
08:24 14.1 °C 12.7 °C 91 % 2 km/h (3 km/h) 0 mm0 mm 20 °C 21 °C 21.5 °C 21.3 °C 59690 m 1022 hPa
08:18 14 °C 12.7 °C 92 % 2 km/h (4 km/h) 0 mm0 mm 20 °C 21.1 °C 21.5 °C 21.3 °C 58960 m 1022 hPa
08:12 13.8 °C 12.5 °C 92 % 3 km/h (5 km/h) 0 mm0 mm 20 °C 21.1 °C 21.5 °C 21.3 °C 56310 m 1021.9 hPa
08:06 13.7 °C 12.6 °C 93 % 3 km/h (5 km/h) 0 mm0 mm 20 °C 21.1 °C 21.5 °C 21.3 °C 56680 m 1021.9 hPa
08:00 13.6 °C 12.8 °C 95 % 4 km/h (5 km/h) 0 mm0 mm 20 °C 21.1 °C 21.5 °C 21.3 °C 55720 m 1022 hPa 8 Octas
07:54 13.4 °C 12.6 °C 95 % 4 km/h (5 km/h) 0 mm0 mm 20 °C 21.2 °C 21.5 °C 21.3 °C 53800 m 1022 hPa
07:48 13.3 °C 12.5 °C 95 % 2 km/h (5 km/h) 0 mm0 mm 20 °C 21.2 °C 21.5 °C 21.3 °C 55190 m 1021.9 hPa
07:42 13.1 °C 12.2 °C 94 % 0 km/h (3 km/h) 0 mm0 mm 20.1 °C 21.2 °C 21.5 °C 21.3 °C 51500 m 1021.9 hPa
07:36 13 °C 12.2 °C 95 % 0 km/h (2 km/h) 0 mm0 mm 20.1 °C 21.2 °C 21.6 °C 21.3 °C 47430 m 1021.9 hPa
07:30 12.9 °C 12.1 °C 95 % 0 km/h (2 km/h) 0 mm0 mm 20.1 °C 21.2 °C 21.5 °C 21.3 °C 53720 m 1021.8 hPa
07:24 12.8 °C 12.2 °C 96 % 2 km/h (3 km/h) 0 mm0 mm 20.1 °C 21.2 °C 21.5 °C 21.3 °C 59540 m 1021.7 hPa
07:18 12.8 °C 12.2 °C 96 % 2 km/h (3 km/h) 0 mm0 mm 20.1 °C 21.2 °C 21.5 °C 21.3 °C 60000 m 1021.6 hPa
07:12 12.7 °C 11.9 °C 95 % 2 km/h (3 km/h) 0 mm0 mm 20.2 °C 21.2 °C 21.5 °C 21.3 °C 59580 m 1021.7 hPa
07:06 12.7 °C 11.9 °C 95 % 3 km/h (4 km/h) 0 mm0 mm 20.2 °C 21.2 °C 21.5 °C 21.3 °C 59580 m 1021.6 hPa
07:00 12.7 °C 11.9 °C 95 % 4 km/h (4 km/h) 0 mm0 mm 20.2 °C 21.3 °C 21.5 °C 21.3 °C 60000 m 1021.6 hPa 8 Octas
06:54 12.7 °C 11.8 °C 94 % 3 km/h (4 km/h) 0 mm0 mm 20.2 °C 21.3 °C 21.5 °C 21.3 °C 60000 m 1021.6 hPa
06:48 12.8 °C 11.9 °C 94 % 3 km/h (4 km/h) 0 mm0 mm 20.2 °C 21.3 °C 21.5 °C 21.3 °C 58950 m 1021.6 hPa
06:42 12.9 °C 12 °C 94 % 3 km/h (4 km/h) 0 mm0 mm 20.3 °C 21.3 °C 21.5 °C 21.3 °C 54530 m 1021.5 hPa
06:36 13 °C 11.9 °C 93 % 3 km/h (4 km/h) 0 mm0 mm 20.2 °C 21.3 °C 21.5 °C 21.3 °C 57940 m 1021.6 hPa
06:30 13.1 °C 12 °C 93 % 3 km/h (3 km/h) 0 mm0 mm 20.3 °C 21.3 °C 21.5 °C 21.3 °C 60000 m 1021.5 hPa
06:24 13.1 °C 12 °C 93 % 3 km/h (3 km/h) 0 mm0 mm 20.3 °C 21.3 °C 21.5 °C 21.3 °C 58880 m 1021.5 hPa
06:18 13.1 °C 12 °C 93 % 3 km/h (4 km/h) 0 mm0 mm 20.4 °C 21.3 °C 21.5 °C 21.3 °C 56300 m 1021.5 hPa
06:12 12.9 °C 12 °C 94 % 3 km/h (4 km/h) 0 mm0 mm 20.4 °C 21.4 °C 21.5 °C 21.3 °C 46130 m 1021.3 hPa
06:06 12.8 °C 11.9 °C 94 % 0 km/h (3 km/h) 0 mm0 mm 20.4 °C 21.4 °C 21.5 °C 21.3 °C 38700 m 1021.5 hPa
06:00 12.7 °C 11.8 °C 94 % 0 km/h (0 km/h) 0 mm0 mm 20.5 °C 21.4 °C 21.5 °C 21.3 °C 48930 m 1021.5 hPa
05:54 12.7 °C 11.8 °C 94 % 0 km/h (2 km/h) 0 mm0 mm 20.5 °C 21.4 °C 21.5 °C 21.3 °C 57110 m 1021.4 hPa
05:48 12.7 °C 11.8 °C 94 % 0 km/h (2 km/h) 0 mm0 mm 20.5 °C 21.4 °C 21.5 °C 21.3 °C 57230 m 1021.4 hPa
05:42 12.7 °C 11.9 °C 95 % 0 km/h (2 km/h) 0 mm0 mm 20.5 °C 21.4 °C 21.5 °C 21.3 °C 54870 m 1021.3 hPa
05:36 12.7 °C 11.8 °C 94 % 0 km/h (2 km/h) 0 mm0 mm 20.5 °C 21.5 °C 21.5 °C 21.3 °C 43430 m 1021.3 hPa
05:30 12.8 °C 11.7 °C 93 % 0 km/h (0 km/h) 0 mm0 mm 20.6 °C 21.5 °C 21.5 °C 21.3 °C 43080 m 1021.2 hPa
05:24 12.9 °C 12 °C 94 % 0 km/h (3 km/h) 0 mm0 mm 20.6 °C 21.5 °C 21.5 °C 21.3 °C 48910 m 1021.2 hPa
05:18 12.9 °C 11.8 °C 93 % 0 km/h (3 km/h) 0 mm0 mm 20.6 °C 21.5 °C 21.5 °C 21.4 °C 41380 m 1021.2 hPa
05:12 13 °C 11.9 °C 93 % 0 km/h (2 km/h) 0 mm0 mm 20.6 °C 21.5 °C 21.5 °C 21.4 °C 42350 m 1021.2 hPa
05:06 13 °C 11.7 °C 92 % 0 km/h (2 km/h) 0 mm0 mm 20.7 °C 21.5 °C 21.5 °C 21.3 °C 51780 m 1021.3 hPa
05:00 13.3 °C 11.9 °C 91 % 3 km/h (5 km/h) 0 mm0 mm 20.7 °C 21.5 °C 21.5 °C 21.3 °C 59170 m 1021.2 hPa
04:54 13.5 °C 12.1 °C 91 % 5 km/h (6 km/h) 0 mm0 mm 20.7 °C 21.5 °C 21.5 °C 21.4 °C 60000 m 1021 hPa
04:48 13.5 °C 12.2 °C 92 % 4 km/h (6 km/h) 0 mm0 mm 20.7 °C 21.5 °C 21.5 °C 21.3 °C 58350 m 1021.1 hPa
04:42 13.5 °C 12.2 °C 92 % 3 km/h (4 km/h) 0 mm0 mm 20.7 °C 21.6 °C 21.5 °C 21.3 °C 49660 m 1021.2 hPa
04:36 13.4 °C 12 °C 91 % 0 km/h (3 km/h) 0 mm0 mm 20.8 °C 21.6 °C 21.5 °C 21.3 °C 43220 m 1021.3 hPa
04:30 13.4 °C 12 °C 91 % 0 km/h (2 km/h) 0 mm0 mm 20.8 °C 21.6 °C 21.5 °C 21.4 °C 35580 m 1021.5 hPa
04:24 13.4 °C 12.3 °C 93 % 0 km/h (2 km/h) 0 mm0 mm 20.8 °C 21.6 °C 21.5 °C 21.3 °C 41580 m 1021.5 hPa
04:18 13.3 °C 12 °C 92 % 0 km/h (2 km/h) 0 mm0 mm 20.8 °C 21.6 °C 21.5 °C 21.3 °C 59880 m 1021.4 hPa
04:12 13.4 °C 12 °C 91 % 2 km/h (3 km/h) 0 mm0 mm 20.9 °C 21.6 °C 21.5 °C 21.4 °C 55970 m 1021.4 hPa
04:06 13.4 °C 12 °C 91 % 2 km/h (2 km/h) 0 mm0 mm 20.9 °C 21.6 °C 21.5 °C 21.3 °C 54170 m 1021.4 hPa
04:00 13.6 °C 12 °C 90 % 2 km/h (2 km/h) 0 mm0 mm 20.9 °C 21.7 °C 21.5 °C 21.4 °C 53000 m 1021.3 hPa
03:54 13.5 °C 12.1 °C 91 % 0 km/h (2 km/h) 0 mm0 mm 20.9 °C 21.7 °C 21.5 °C 21.4 °C 44850 m 1021.5 hPa
03:48 13.5 °C 12.1 °C 91 % 0 km/h (2 km/h) 0 mm0 mm 20.9 °C 21.7 °C 21.5 °C 21.4 °C 48720 m 1021.6 hPa
03:42 13.4 °C 12 °C 91 % 0 km/h (2 km/h) 0 mm0 mm 21 °C 21.7 °C 21.5 °C 21.4 °C 48830 m 1021.5 hPa
03:36 13.5 °C 11.9 °C 90 % 2 km/h (3 km/h) 0 mm0 mm 21 °C 21.7 °C 21.5 °C 21.3 °C 46690 m 1021.6 hPa
03:30 13.5 °C 11.9 °C 90 % 2 km/h (3 km/h) 0 mm0 mm 21 °C 21.7 °C 21.5 °C 21.4 °C 53070 m 1021.7 hPa
03:24 13.8 °C 12 °C 89 % 2 km/h (3 km/h) 0 mm0 mm 21 °C 21.7 °C 21.5 °C 21.3 °C 47660 m 1021.5 hPa
03:18 13.8 °C 11.8 °C 88 % 2 km/h (3 km/h) 0 mm0 mm 21.1 °C 21.7 °C 21.4 °C 21.3 °C 44550 m 1021.6 hPa
03:12 14.1 °C 12 °C 87 % 2 km/h (3 km/h) 0 mm0 mm 21.1 °C 21.8 °C 21.5 °C 21.4 °C 58890 m 1021.5 hPa
03:06 14.2 °C 12.1 °C 87 % 2 km/h (3 km/h) 0 mm0 mm 21.2 °C 21.8 °C 21.5 °C 21.4 °C 60000 m 1021.6 hPa
03:00 14.3 °C 12.2 °C 87 % 0 km/h (3 km/h) 0 mm0 mm 21.2 °C 21.8 °C 21.4 °C 21.3 °C 60000 m 1021.4 hPa
02:54 14.4 °C 11.7 °C 84 % 2 km/h (3 km/h) 0 mm0 mm 21.2 °C 21.8 °C 21.4 °C 21.4 °C 60000 m 1021.4 hPa
02:48 14.6 °C 12.3 °C 86 % 2 km/h (4 km/h) 0 mm0 mm 21.2 °C 21.8 °C 21.5 °C 21.4 °C 56270 m 1021.4 hPa
02:42 14.3 °C 12.2 °C 87 % 0 km/h (2 km/h) 0 mm0 mm 21.3 °C 21.8 °C 21.4 °C 21.4 °C 56810 m 1021.4 hPa
02:36 14.2 °C 11.9 °C 86 % 0 km/h (2 km/h) 0 mm0 mm 21.3 °C 21.8 °C 21.4 °C 21.4 °C 60000 m 1021.4 hPa
02:30 14.3 °C 12 °C 86 % 2 km/h (4 km/h) 0 mm0 mm 21.3 °C 21.8 °C 21.4 °C 21.4 °C 60000 m 1021.3 hPa
02:24 14.4 °C 11.9 °C 85 % 3 km/h (4 km/h) 0 mm0 mm 21.3 °C 21.9 °C 21.5 °C 21.4 °C 60000 m 1021.3 hPa
02:18 14.4 °C 12.1 °C 86 % 4 km/h (5 km/h) 0 mm0 mm 21.3 °C 21.8 °C 21.4 °C 21.4 °C 60000 m 1021.4 hPa
02:12 14.5 °C 12.2 °C 86 % 3 km/h (5 km/h) 0 mm0 mm 21.4 °C 21.8 °C 21.4 °C 21.4 °C 60000 m 1021.5 hPa
02:06 14.3 °C 12 °C 86 % 2 km/h (4 km/h) 0 mm0 mm 21.4 °C 21.9 °C 21.4 °C 21.4 °C 60000 m 1021.5 hPa
02:00 14.4 °C 12.3 °C 87 % 2 km/h (6 km/h) 0 mm0 mm 21.4 °C 21.9 °C 21.4 °C 21.4 °C 60000 m 1021.5 hPa
01:54 14.2 °C 12.1 °C 87 % 5 km/h (8 km/h) 0 mm0 mm 21.5 °C 21.9 °C 21.4 °C 21.4 °C 60000 m 1021.5 hPa
01:48 14.1 °C 11.4 °C 84 % 7 km/h (9 km/h) 0 mm0 mm 21.5 °C 21.9 °C 21.4 °C 21.4 °C 60000 m 1021.5 hPa
01:42 14.4 °C 11.4 °C 82 % 6 km/h (9 km/h) 0 mm0 mm 21.5 °C 21.9 °C 21.4 °C 21.4 °C 60000 m 1021.6 hPa
01:36 15.2 °C 12 °C 81 % 5 km/h (6 km/h) 0 mm0 mm 21.5 °C 21.9 °C 21.4 °C 21.4 °C 59170 m 1021.4 hPa
01:30 15 °C 11.9 °C 82 % 4 km/h (6 km/h) 0 mm0 mm 21.6 °C 21.9 °C 21.4 °C 21.4 °C 58400 m 1021.4 hPa
01:24 14.9 °C 11.9 °C 82 % 4 km/h (4 km/h) 0 mm0 mm 21.6 °C 21.9 °C 21.4 °C 21.4 °C 59480 m 1021.6 hPa
01:18 14.8 °C 11.9 °C 83 % 3 km/h (4 km/h) 0 mm0 mm 21.6 °C 21.9 °C 21.4 °C 21.4 °C 60000 m 1021.6 hPa
01:12 14.7 °C 11.7 °C 82 % 0 km/h (3 km/h) 0 mm0 mm 21.6 °C 21.9 °C 21.4 °C 21.4 °C 60000 m 1021.6 hPa
01:06 14.9 °C 11.9 °C 82 % 0 km/h (0 km/h) 0 mm0 mm 21.7 °C 22 °C 21.4 °C 21.4 °C 60000 m 1021.6 hPa
01:00 15.1 °C 12 °C 82 % 0 km/h (3 km/h) 0 mm0 mm 21.7 °C 22 °C 21.4 °C 21.4 °C 60000 m 1021.5 hPa
00:54 15 °C 11.9 °C 82 % 2 km/h (3 km/h) 0 mm0 mm 21.7 °C 22 °C 21.4 °C 21.4 °C 60000 m 1021.4 hPa
00:48 15.1 °C 12.2 °C 83 % 2 km/h (6 km/h) 0 mm0 mm 21.7 °C 22 °C 21.4 °C 21.4 °C 60000 m 1021.5 hPa
00:42 15.2 °C 12.5 °C 84 % 2 km/h (6 km/h) 0 mm0 mm 21.8 °C 22 °C 21.4 °C 21.3 °C 60000 m 1021.5 hPa
00:36 15.4 °C 12.7 °C 84 % 2 km/h (3 km/h) 0 mm0 mm 21.8 °C 22 °C 21.4 °C 21.4 °C 60000 m 1021.5 hPa
00:30 15.4 °C 12.5 °C 83 % 2 km/h (3 km/h) 0 mm0 mm 21.8 °C 22 °C 21.4 °C 21.4 °C 60000 m 1021.5 hPa
00:24 15.6 °C 12.2 °C 80 % 3 km/h (5 km/h) 0 mm0 mm 21.8 °C 22 °C 21.4 °C 21.4 °C 60000 m 1021.5 hPa
00:18 15.9 °C 12.3 °C 79 % 4 km/h (6 km/h) 0 mm0 mm 21.9 °C 22 °C 21.4 °C 21.4 °C 60000 m 1021.4 hPa
00:12 16.1 °C 12.5 °C 79 % 4 km/h (6 km/h) 0 mm0 mm 21.9 °C 22 °C 21.4 °C 21.4 °C 60000 m 1021.3 hPa
00:06 16.2 °C 12.6 °C 79 % 3 km/h (5 km/h) 0 mm0 mm 21.9 °C 22 °C 21.4 °C 21.4 °C 60000 m 1021.3 hPa
00:00 16.3 °C 12.1 °C 76 % 2 km/h (3 km/h) 0 mm0 mm 21.9 °C 22.1 °C 21.4 °C 21.4 °C 60000 m 1021.2 hPa

Données via Météo-France

Relevés météo à Avord

Cette page rassemble les observations de la station de Avord : température, humidité, vent, précipitations et pression atmosphérique. Les graphiques facilitent le suivi de la journée, tandis que le tableau donne accès aux mesures horaires et infra-horaires disponibles.

Pour replacer ces mesures dans leur contexte, consultez la climatologie de Avord ainsi que ses normales et records. Retrouvez aussi la carte des observations météo en temps réel.